createdAt,value
2023-04-14T00:00:02.855Z,98863.02
2023-04-14T00:02:44.028Z,98864.84
2023-04-14T00:05:12.351Z,98866.86
2023-04-14T00:07:40.626Z,98864.49
2023-04-14T00:10:09.777Z,98864.09
2023-04-14T00:12:38.165Z,98864.85
2023-04-14T00:15:06.869Z,98867.35
2023-04-14T00:17:36.823Z,98865.10
2023-04-14T00:20:05.264Z,98863.17
2023-04-14T00:22:33.574Z,98863.88
2023-04-14T00:25:01.867Z,98865.23
2023-04-14T00:27:31.285Z,98870.20
2023-04-14T00:29:59.696Z,98872.46
2023-04-14T00:32:27.975Z,98871.52
2023-04-14T00:34:57.172Z,98870.19
2023-04-14T00:37:26.091Z,98863.89
2023-04-14T00:39:54.120Z,98863.95
2023-04-14T00:42:22.055Z,98865.10
2023-04-14T00:44:49.997Z,98863.91
2023-04-14T00:47:18.090Z,98864.01
2023-04-14T00:49:46.787Z,98866.10
2023-04-14T00:52:14.766Z,98863.86
2023-04-14T00:54:43.797Z,98864.99
2023-04-14T00:57:12.237Z,98865.99
2023-04-14T00:59:41.759Z,98865.01
2023-04-14T01:02:09.785Z,98864.21
2023-04-14T01:04:52.680Z,98867.71
2023-04-14T01:07:22.517Z,98868.10
2023-04-14T01:09:50.998Z,98874.96
2023-04-14T01:12:27.066Z,98874.06
2023-04-14T01:14:58.717Z,98875.20
2023-04-14T01:17:28.238Z,98877.89
2023-04-14T01:20:08.333Z,98878.04
2023-04-14T01:22:38.382Z,98881.41
2023-04-14T01:25:25.305Z,98879.70
2023-04-14T01:27:57.435Z,98878.92
2023-04-14T01:30:27.081Z,98878.13
2023-04-14T01:32:56.735Z,98872.86
2023-04-14T01:35:27.694Z,98871.72
2023-04-14T01:37:57.763Z,98872.90
2023-04-14T01:40:26.098Z,98872.53
2023-04-14T01:42:59.524Z,98872.20
2023-04-14T01:45:28.060Z,98873.09
2023-04-14T01:47:56.285Z,98873.27
2023-04-14T01:50:25.588Z,98881.36
2023-04-14T01:52:55.043Z,98878.07
2023-04-14T01:55:23.749Z,98879.05
2023-04-14T01:57:55.800Z,98877.40
2023-04-14T02:00:24.655Z,98878.86
2023-04-14T02:02:53.888Z,98881.31
2023-04-14T02:05:24.128Z,98880.61
2023-04-14T02:07:52.770Z,98884.23
2023-04-14T02:10:21.699Z,98882.87
2023-04-14T02:12:52.306Z,98887.06
2023-04-14T02:15:40.205Z,98884.02
2023-04-14T02:18:08.326Z,98886.89
2023-04-14T02:20:38.305Z,98889.07
2023-04-14T02:23:26.095Z,98894.81
2023-04-14T02:25:56.466Z,98891.21
2023-04-14T02:28:28.149Z,98895.41
2023-04-14T02:30:56.517Z,98900.50
2023-04-14T02:33:27.586Z,98903.70
2023-04-14T02:36:01.040Z,98904.66
2023-04-14T02:38:32.443Z,98908.30
2023-04-14T02:41:08.512Z,98909.94
2023-04-14T02:43:41.919Z,98912.42
2023-04-14T02:46:10.094Z,98915.17
2023-04-14T02:48:38.145Z,98919.55
2023-04-14T02:51:06.328Z,98924.37
2023-04-14T02:53:34.479Z,98927.00
2023-04-14T02:56:09.776Z,98924.14
2023-04-14T02:58:39.954Z,98924.11
2023-04-14T03:01:07.984Z,98924.11
2023-04-14T03:03:39.784Z,98931.06
2023-04-14T03:06:09.927Z,98929.52
2023-04-14T03:08:38.126Z,98937.08
2023-04-14T03:11:06.715Z,98938.55
2023-04-14T03:13:34.793Z,98941.44
2023-04-14T03:16:03.835Z,98948.05
2023-04-14T03:18:32.525Z,98951.23
2023-04-14T03:21:02.085Z,98947.58
2023-04-14T03:23:31.425Z,98949.02
2023-04-14T03:26:06.202Z,98943.83
2023-04-14T03:28:37.056Z,98942.75
2023-04-14T03:31:06.389Z,98944.86
2023-04-14T03:33:57.377Z,98946.63
2023-04-14T03:36:31.164Z,98948.27
2023-04-14T03:39:01.680Z,98950.08
2023-04-14T03:41:37.989Z,98949.90
2023-04-14T03:44:06.768Z,98951.54
2023-04-14T03:46:34.995Z,98953.02
2023-04-14T03:49:06.834Z,98955.94
2023-04-14T03:51:35.226Z,98958.79
2023-04-14T03:54:03.168Z,98962.11
2023-04-14T03:56:31.435Z,98961.13
2023-04-14T03:59:01.420Z,98969.01
2023-04-14T04:01:31.996Z,98968.59
2023-04-14T04:04:00.987Z,98972.13
2023-04-14T04:06:29.138Z,98972.22
2023-04-14T04:08:57.441Z,98974.48
2023-04-14T04:11:26.152Z,98975.50
2023-04-14T04:13:55.000Z,98975.15
2023-04-14T04:16:23.572Z,98983.16
2023-04-14T04:18:51.728Z,98983.46
2023-04-14T04:21:23.624Z,98984.72
2023-04-14T04:23:52.672Z,98987.24
2023-04-14T04:26:21.126Z,98986.96
2023-04-14T04:28:54.864Z,98989.68
2023-04-14T04:31:22.978Z,98991.16
2023-04-14T04:33:51.603Z,98988.60
2023-04-14T04:36:27.968Z,98993.80
2023-04-14T04:38:57.161Z,98995.00
2023-04-14T04:41:26.458Z,98996.35
2023-04-14T04:43:54.967Z,99001.81
2023-04-14T04:46:42.081Z,99003.91
2023-04-14T04:49:12.961Z,99005.58
2023-04-14T04:51:41.204Z,99007.16
2023-04-14T04:54:09.336Z,99011.08
2023-04-14T04:56:38.201Z,99012.65
2023-04-14T04:59:06.784Z,99017.61
2023-04-14T05:01:35.629Z,99022.04
2023-04-14T05:04:05.499Z,99024.29
2023-04-14T05:06:39.754Z,99026.23
2023-04-14T05:09:12.640Z,99028.57
2023-04-14T05:11:40.503Z,99027.20
2023-04-14T05:14:08.447Z,99030.62
2023-04-14T05:16:36.493Z,99035.59
2023-04-14T05:19:05.052Z,99036.02
2023-04-14T05:21:34.143Z,99039.52
2023-04-14T05:24:02.185Z,99043.36
2023-04-14T05:26:48.786Z,99045.95
2023-04-14T05:29:21.886Z,99050.14
2023-04-14T05:31:50.084Z,99049.31
2023-04-14T05:34:18.387Z,99053.50
2023-04-14T05:36:47.692Z,99055.86
2023-04-14T05:39:16.265Z,99058.24
2023-04-14T05:41:44.458Z,99055.83
2023-04-14T05:44:12.928Z,99054.79
2023-04-14T05:46:41.830Z,99055.89
2023-04-14T05:49:12.537Z,99054.84
2023-04-14T05:51:48.374Z,99054.27
2023-04-14T05:54:50.825Z,99056.19
2023-04-14T05:57:41.007Z,99056.12
2023-04-14T06:00:16.591Z,99063.94
2023-04-14T06:03:38.525Z,99070.02
2023-04-14T06:06:10.060Z,99073.58
2023-04-14T06:08:39.154Z,99074.74
2023-04-14T06:11:07.626Z,99072.50
2023-04-14T06:13:36.767Z,99073.98
2023-04-14T06:16:04.909Z,99077.08
2023-04-14T06:18:33.220Z,99076.19
2023-04-14T06:21:03.093Z,99079.79
2023-04-14T06:23:31.733Z,99084.08
2023-04-14T06:26:01.847Z,99081.72
2023-04-14T06:28:33.905Z,99084.36
2023-04-14T06:31:02.164Z,99084.50
2023-04-14T06:33:30.489Z,99089.68
2023-04-14T06:35:59.589Z,99092.16
2023-04-14T06:38:28.696Z,99097.82
2023-04-14T06:40:56.746Z,99103.02
2023-04-14T06:43:24.764Z,99101.20
2023-04-14T06:45:53.036Z,99099.43
2023-04-14T06:48:21.499Z,99101.25
2023-04-14T06:50:55.817Z,99101.83
2023-04-14T06:53:24.148Z,99106.60
2023-04-14T06:56:01.089Z,99104.75
2023-04-14T06:58:31.172Z,99107.13
2023-04-14T07:01:01.312Z,99107.04
2023-04-14T07:03:30.709Z,99108.17
2023-04-14T07:06:05.256Z,99113.70
2023-04-14T07:08:35.027Z,99119.75
2023-04-14T07:11:04.269Z,99121.55
2023-04-14T07:13:32.845Z,99125.36
2023-04-14T07:16:09.684Z,99127.48
2023-04-14T07:18:38.990Z,99131.52
2023-04-14T07:21:06.915Z,99127.31
2023-04-14T07:23:40.645Z,99133.75
2023-04-14T07:26:08.588Z,99129.48
2023-04-14T07:28:37.336Z,99133.39
2023-04-14T07:31:10.374Z,99125.90
2023-04-14T07:33:40.075Z,99125.29
2023-04-14T07:36:09.416Z,99123.61
2023-04-14T07:38:37.440Z,99125.73
2023-04-14T07:41:06.567Z,99125.54
2023-04-14T07:43:38.903Z,99121.45
2023-04-14T07:46:08.538Z,99124.35
2023-04-14T07:48:37.419Z,99123.89
2023-04-14T07:51:09.222Z,99121.00
2023-04-14T07:53:42.569Z,99119.65
2023-04-14T07:56:11.021Z,99124.85
2023-04-14T07:58:40.360Z,99124.14
2023-04-14T08:01:08.400Z,99117.90
2023-04-14T08:03:40.820Z,99122.95
2023-04-14T08:06:11.623Z,99126.20
2023-04-14T08:08:40.638Z,99127.23
2023-04-14T08:11:08.785Z,99133.48
2023-04-14T08:13:39.829Z,99138.47
2023-04-14T08:16:09.485Z,99138.06
2023-04-14T08:18:40.073Z,99138.56
2023-04-14T08:21:08.420Z,99138.68
2023-04-14T08:23:38.806Z,99139.01
2023-04-14T08:26:06.791Z,99142.69
2023-04-14T08:28:35.095Z,99147.05
2023-04-14T08:31:08.762Z,99147.05
2023-04-14T08:33:37.006Z,99147.05
2023-04-14T08:36:05.828Z,99143.59
2023-04-14T08:38:36.852Z,99141.52
2023-04-14T08:41:05.524Z,99136.01
2023-04-14T08:43:33.609Z,99129.98
2023-04-14T08:46:07.381Z,99128.17
2023-04-14T08:48:35.987Z,99132.21
2023-04-14T08:51:22.802Z,99131.35
2023-04-14T08:53:52.834Z,99126.76
2023-04-14T08:56:21.661Z,99129.80
2023-04-14T08:58:49.730Z,99133.30
2023-04-14T09:01:17.957Z,99131.55
2023-04-14T09:03:47.517Z,99130.73
2023-04-14T09:06:15.956Z,99138.34
2023-04-14T09:08:48.265Z,99135.45
2023-04-14T09:11:16.563Z,99135.48
2023-04-14T09:13:44.660Z,99142.13
2023-04-14T09:16:12.702Z,99139.64
2023-04-14T09:18:43.483Z,99142.13
2023-04-14T09:21:28.779Z,99147.29
2023-04-14T09:24:05.646Z,99148.39
2023-04-14T09:26:34.824Z,99148.61
2023-04-14T09:29:03.041Z,99146.16
2023-04-14T09:31:36.941Z,99146.23
2023-04-14T09:34:05.321Z,99144.77
2023-04-14T09:36:33.548Z,99147.55
2023-04-14T09:39:02.813Z,99146.97
2023-04-14T09:41:32.709Z,99152.27
2023-04-14T09:44:10.096Z,99159.19
2023-04-14T09:46:56.892Z,99158.98
2023-04-14T09:49:25.695Z,99159.26
2023-04-14T09:51:55.331Z,99166.84
2023-04-14T09:54:26.556Z,99166.77
2023-04-14T09:56:54.520Z,99167.43
2023-04-14T09:59:34.844Z,99166.55
2023-04-14T10:02:09.126Z,99167.23
2023-04-14T10:04:38.249Z,99168.66
2023-04-14T10:07:11.344Z,99169.89
2023-04-14T10:09:40.821Z,99172.88
2023-04-14T10:12:09.958Z,99167.58
2023-04-14T10:14:40.209Z,99165.52
2023-04-14T10:17:08.414Z,99168.00
2023-04-14T10:19:36.639Z,99165.95
2023-04-14T10:22:07.626Z,99164.50
2023-04-14T10:24:36.106Z,99169.11
2023-04-14T10:27:04.976Z,99176.27
2023-04-14T10:29:34.038Z,99183.15
2023-04-14T10:32:03.869Z,99188.00
2023-04-14T10:34:35.127Z,99190.79
2023-04-14T10:37:14.099Z,99197.59
2023-04-14T10:39:43.034Z,99197.97
2023-04-14T10:42:11.025Z,99197.08
2023-04-14T10:44:40.306Z,99198.67
2023-04-14T10:47:08.736Z,99202.66
2023-04-14T10:49:38.373Z,99200.01
2023-04-14T10:52:12.856Z,99201.26
2023-04-14T10:54:54.166Z,99203.35
2023-04-14T10:57:25.905Z,99204.29
2023-04-14T11:00:01.131Z,99211.26
2023-04-14T11:02:31.824Z,99212.02
2023-04-14T11:05:04.518Z,99214.20
2023-04-14T11:07:47.335Z,99215.02
2023-04-14T11:10:21.670Z,99215.94
2023-04-14T11:12:57.822Z,99220.25
2023-04-14T11:15:42.849Z,99222.80
2023-04-14T11:18:15.907Z,99219.96
2023-04-14T11:20:44.129Z,99226.07
2023-04-14T11:23:13.454Z,99231.57
2023-04-14T11:25:42.659Z,99231.00
2023-04-14T11:28:11.158Z,99234.17
2023-04-14T11:30:40.714Z,99227.16
2023-04-14T11:33:08.950Z,99227.58
2023-04-14T11:35:36.936Z,99224.05
2023-04-14T11:38:05.849Z,99226.11
2023-04-14T11:40:36.716Z,99224.89
2023-04-14T11:43:04.630Z,99225.77
2023-04-14T11:45:32.729Z,99224.30
2023-04-14T11:48:04.682Z,99225.95
2023-04-14T11:50:33.775Z,99223.18
2023-04-14T11:53:03.024Z,99219.77
2023-04-14T11:55:32.101Z,99220.04
2023-04-14T11:58:00.378Z,99220.88
2023-04-14T12:00:28.349Z,99219.16
2023-04-14T12:02:57.511Z,99215.38
2023-04-14T12:05:30.441Z,99222.77
2023-04-14T12:07:59.411Z,99219.61
2023-04-14T12:10:28.780Z,99215.20
2023-04-14T12:13:07.669Z,99218.13
2023-04-14T12:15:39.671Z,99220.31
2023-04-14T12:18:09.098Z,99216.45
2023-04-14T12:20:47.551Z,99216.77
2023-04-14T12:23:15.831Z,99213.41
2023-04-14T12:25:45.535Z,99213.63
2023-04-14T12:28:17.620Z,99212.54
2023-04-14T12:30:52.076Z,99214.05
2023-04-14T12:33:22.474Z,99214.97
2023-04-14T12:35:50.923Z,99213.96
2023-04-14T12:38:19.108Z,99210.60
2023-04-14T12:40:48.608Z,99211.41
2023-04-14T12:43:16.832Z,99212.69
2023-04-14T12:45:51.241Z,99209.80
2023-04-14T12:48:19.851Z,99216.40
2023-04-14T12:50:47.874Z,99215.62
2023-04-14T12:53:28.868Z,99215.98
2023-04-14T12:56:10.530Z,99219.48
2023-04-14T12:58:41.954Z,99220.13
2023-04-14T13:01:10.530Z,99224.54
2023-04-14T13:03:39.478Z,99222.14
2023-04-14T13:06:08.479Z,99222.95
2023-04-14T13:08:47.215Z,99217.16
2023-04-14T13:11:15.738Z,99217.85
2023-04-14T13:13:54.706Z,99222.88
2023-04-14T13:16:26.418Z,99227.63
2023-04-14T13:18:56.203Z,99227.33
2023-04-14T13:21:24.139Z,99226.37
2023-04-14T13:23:53.631Z,99230.60
2023-04-14T13:26:22.658Z,99228.56
2023-04-14T13:28:51.932Z,99225.96
2023-04-14T13:31:20.743Z,99227.66
2023-04-14T13:33:48.843Z,99229.95
2023-04-14T13:36:17.019Z,99227.37
2023-04-14T13:38:47.413Z,99224.04
2023-04-14T13:41:18.953Z,99223.80
2023-04-14T13:43:48.410Z,99224.10
2023-04-14T13:46:17.868Z,99226.45
2023-04-14T13:48:48.412Z,99223.89
2023-04-14T13:51:16.414Z,99224.41
2023-04-14T13:53:44.448Z,99226.80
2023-04-14T13:56:12.470Z,99224.65
2023-04-14T13:58:40.686Z,99227.27
2023-04-14T14:01:10.587Z,99227.61
2023-04-14T14:03:44.069Z,99230.57
2023-04-14T14:06:12.269Z,99233.83
2023-04-14T14:08:42.277Z,99238.60
2023-04-14T14:11:16.091Z,99233.10
2023-04-14T14:13:44.579Z,99234.10
2023-04-14T14:16:20.211Z,99231.73
2023-04-14T14:19:00.209Z,99235.73
2023-04-14T14:21:28.334Z,99237.94
2023-04-14T14:23:56.416Z,99239.23
2023-04-14T14:26:24.344Z,99246.85
2023-04-14T14:28:52.767Z,99249.52
2023-04-14T14:31:20.945Z,99252.32
2023-04-14T14:33:49.964Z,99253.84
2023-04-14T14:36:18.022Z,99257.02
2023-04-14T14:38:45.948Z,99261.62
2023-04-14T14:41:14.289Z,99262.58
2023-04-14T14:43:43.138Z,99266.60
2023-04-14T14:46:15.888Z,99276.42
2023-04-14T14:48:45.489Z,99279.52
2023-04-14T14:51:13.578Z,99286.98
2023-04-14T14:53:45.406Z,99288.69
2023-04-14T14:56:13.553Z,99290.20
2023-04-14T14:58:41.946Z,99296.48
2023-04-14T15:01:16.993Z,99296.11
2023-04-14T15:03:46.505Z,99293.44
2023-04-14T15:06:14.839Z,99298.25
2023-04-14T15:08:43.892Z,99301.67
2023-04-14T15:11:13.811Z,99300.80
2023-04-14T15:13:45.644Z,99304.34
2023-04-14T15:16:13.603Z,99308.50
2023-04-14T15:18:43.181Z,99309.37
2023-04-14T15:21:11.381Z,99314.61
2023-04-14T15:23:41.338Z,99316.75
2023-04-14T15:26:14.176Z,99321.16
2023-04-14T15:28:42.506Z,99327.30
2023-04-14T15:31:10.757Z,99337.17
2023-04-14T15:33:39.385Z,99334.85
2023-04-14T15:36:07.921Z,99339.06
2023-04-14T15:38:36.035Z,99338.40
2023-04-14T15:41:04.548Z,99342.80
2023-04-14T15:43:34.842Z,99340.81
2023-04-14T15:46:03.755Z,99343.98
2023-04-14T15:48:31.812Z,99346.62
2023-04-14T15:50:59.946Z,99345.62
2023-04-14T15:53:28.374Z,99349.60
2023-04-14T15:55:56.358Z,99354.69
2023-04-14T15:58:24.816Z,99359.08
2023-04-14T16:00:52.923Z,99358.30
2023-04-14T16:03:21.321Z,99363.39
2023-04-14T16:05:50.541Z,99368.58
2023-04-14T16:08:21.529Z,99370.41
2023-04-14T16:10:57.577Z,99375.92
2023-04-14T16:13:29.784Z,99380.00
2023-04-14T16:15:58.611Z,99387.08
2023-04-14T16:18:26.813Z,99385.58
2023-04-14T16:20:54.806Z,99390.16
2023-04-14T16:23:23.244Z,99389.58
2023-04-14T16:25:51.410Z,99389.91
2023-04-14T16:28:19.441Z,99392.59
2023-04-14T16:30:47.874Z,99391.92
2023-04-14T16:33:23.370Z,99392.39
2023-04-14T16:35:51.286Z,99394.73
2023-04-14T16:38:21.246Z,99390.91
2023-04-14T16:40:58.798Z,99397.95
2023-04-14T16:43:28.167Z,99399.40
2023-04-14T16:46:06.812Z,99403.55
2023-04-14T16:48:37.787Z,99408.61
2023-04-14T16:51:09.232Z,99411.29
2023-04-14T16:53:37.793Z,99413.61
2023-04-14T16:56:06.404Z,99418.99
2023-04-14T16:58:35.091Z,99418.14
2023-04-14T17:01:03.803Z,99420.77
2023-04-14T17:03:32.461Z,99421.60
2023-04-14T17:06:00.818Z,99422.19
2023-04-14T17:08:29.022Z,99424.60
2023-04-14T17:10:56.987Z,99427.83
2023-04-14T17:13:25.164Z,99430.67
2023-04-14T17:16:08.400Z,99432.27
2023-04-14T17:18:39.234Z,99436.85
2023-04-14T17:21:07.494Z,99440.95
2023-04-14T17:23:40.866Z,99439.73
2023-04-14T17:26:09.828Z,99444.86
2023-04-14T17:28:38.794Z,99448.50
2023-04-14T17:31:14.896Z,99451.62
2023-04-14T17:33:43.664Z,99453.30
2023-04-14T17:36:16.606Z,99458.55
2023-04-14T17:38:46.115Z,99461.26
2023-04-14T17:41:14.412Z,99462.68
2023-04-14T17:43:46.478Z,99463.20
2023-04-14T17:46:16.683Z,99469.98
2023-04-14T17:48:45.006Z,99474.92
2023-04-14T17:51:13.470Z,99474.37
2023-04-14T17:53:43.127Z,99474.25
2023-04-14T17:56:11.581Z,99471.59
2023-04-14T17:58:40.390Z,99472.20
2023-04-14T18:01:09.794Z,99471.98
2023-04-14T18:03:38.743Z,99478.55
2023-04-14T18:06:07.181Z,99475.18
2023-04-14T18:08:36.835Z,99479.90
2023-04-14T18:11:05.781Z,99478.58
2023-04-14T18:13:34.807Z,99482.52
2023-04-14T18:16:02.937Z,99485.34
2023-04-14T18:18:31.637Z,99483.76
2023-04-14T18:20:59.918Z,99483.16
2023-04-14T18:23:28.698Z,99482.73
2023-04-14T18:28:33.937Z,99484.20
2023-04-14T18:31:02.072Z,99484.45
2023-04-14T18:33:31.157Z,99488.48
2023-04-14T18:36:00.581Z,99486.66
2023-04-14T18:38:31.886Z,99487.58
2023-04-14T18:41:02.640Z,99487.05
2023-04-14T18:43:32.912Z,99487.71
2023-04-14T18:46:01.403Z,99484.28
2023-04-14T18:48:34.213Z,99491.58
2023-04-14T18:51:04.656Z,99487.76
2023-04-14T18:53:32.818Z,99488.27
2023-04-14T18:56:03.443Z,99479.42
2023-04-14T18:58:31.811Z,99483.54
2023-04-14T19:00:59.866Z,99476.56
2023-04-14T19:03:30.435Z,99474.95
2023-04-14T19:05:58.834Z,99475.55
2023-04-14T19:08:27.504Z,99471.92
2023-04-14T19:10:55.929Z,99473.16
2023-04-14T19:13:24.401Z,99475.42
2023-04-14T19:15:52.993Z,99477.45
2023-04-14T19:18:21.267Z,99471.27
2023-04-14T19:20:50.073Z,99471.33
2023-04-14T19:23:21.526Z,99471.55
2023-04-14T19:25:50.678Z,99472.97
2023-04-14T19:28:22.341Z,99474.31
2023-04-14T19:30:53.536Z,99473.11
2023-04-14T19:33:21.601Z,99471.04
2023-04-14T19:35:51.259Z,99475.90
2023-04-14T19:38:19.741Z,99475.40
2023-04-14T19:40:48.668Z,99473.85
2023-04-14T19:43:17.378Z,99479.84
2023-04-14T19:45:51.644Z,99481.14
2023-04-14T19:48:24.072Z,99476.38
2023-04-14T19:50:54.932Z,99475.55
2023-04-14T19:53:23.879Z,99474.40
2023-04-14T19:55:53.660Z,99477.54
2023-04-14T19:58:21.995Z,99475.91
2023-04-14T20:00:53.492Z,99478.77
2023-04-14T20:03:24.372Z,99479.80
2023-04-14T20:05:56.886Z,99480.50
2023-04-14T20:08:27.376Z,99485.01
2023-04-14T20:10:55.659Z,99488.42
2023-04-14T20:13:24.511Z,99489.90
2023-04-14T20:15:58.713Z,99497.77
2023-04-14T20:18:28.142Z,99500.83
2023-04-14T20:20:57.343Z,99499.29
2023-04-14T20:23:25.785Z,99501.27
2023-04-14T20:25:54.204Z,99501.31
2023-04-14T20:28:26.692Z,99499.84
2023-04-14T20:30:55.763Z,99501.45
2023-04-14T20:33:24.766Z,99502.02
2023-04-14T20:35:54.007Z,99505.50
2023-04-14T20:38:22.727Z,99510.41
2023-04-14T20:40:50.920Z,99514.94
2023-04-14T20:43:19.279Z,99515.59
2023-04-14T20:45:49.581Z,99515.30
2023-04-14T20:48:27.052Z,99519.84
2023-04-14T20:50:55.206Z,99523.48
2023-04-14T20:53:26.672Z,99524.56
2023-04-14T20:55:56.497Z,99529.16
2023-04-14T20:58:25.650Z,99541.36
2023-04-14T21:00:53.707Z,99544.55
2023-04-14T21:03:24.136Z,99550.23
2023-04-14T21:05:52.714Z,99546.90
2023-04-14T21:08:21.461Z,99552.89
2023-04-14T21:11:14.515Z,99555.10
2023-04-14T21:15:26.253Z,99560.02
2023-04-14T21:16:30.741Z,99559.81
2023-04-14T21:18:58.724Z,99563.38
2023-04-14T21:21:29.233Z,99565.98
2023-04-14T21:23:58.224Z,99571.50
2023-04-14T21:26:26.967Z,99571.69
2023-04-14T21:28:57.958Z,99573.92
2023-04-14T21:31:27.585Z,99579.02
2023-04-14T21:33:55.974Z,99584.00
2023-04-14T21:36:24.817Z,99590.59
2023-04-14T21:38:53.031Z,99590.77
2023-04-14T21:41:21.088Z,99593.70
2023-04-14T21:43:50.434Z,99601.42
2023-04-14T21:46:18.405Z,99606.09
2023-04-14T21:48:46.393Z,99610.10
2023-04-14T21:51:14.995Z,99616.60
2023-04-14T21:53:44.053Z,99623.19
2023-04-14T21:56:14.546Z,99626.83
2023-04-14T21:58:42.677Z,99634.98
2023-04-14T22:01:11.340Z,99636.36
2023-04-14T22:03:41.295Z,99639.18
2023-04-14T22:06:12.640Z,99645.49
2023-04-14T22:08:42.536Z,99644.91
2023-04-14T22:11:11.062Z,99646.86
2023-04-14T22:13:39.308Z,99639.48
2023-04-14T22:16:11.552Z,99643.50
2023-04-14T22:18:40.056Z,99643.07
2023-04-14T22:21:12.286Z,99645.14
2023-04-14T22:23:43.885Z,99646.00
2023-04-14T22:26:13.502Z,99651.61
2023-04-14T22:28:42.824Z,99644.52
2023-04-14T22:31:11.095Z,99650.95
2023-04-14T22:33:42.066Z,99658.08
2023-04-14T22:36:10.573Z,99656.25
2023-04-14T22:38:38.769Z,99652.25
2023-04-14T22:41:06.867Z,99653.91
2023-04-14T22:43:34.783Z,99653.44
2023-04-14T22:46:02.773Z,99655.18
2023-04-14T22:48:31.086Z,99653.76
2023-04-14T22:50:59.322Z,99651.48
2023-04-14T22:53:28.132Z,99653.59
2023-04-14T22:55:56.367Z,99653.28
2023-04-14T22:58:24.292Z,99651.42
2023-04-14T23:00:54.300Z,99653.36
2023-04-14T23:03:23.453Z,99650.34
2023-04-14T23:05:52.056Z,99649.15
2023-04-14T23:08:22.176Z,99645.92
2023-04-14T23:10:50.343Z,99646.67
2023-04-14T23:13:18.272Z,99647.65
2023-04-14T23:15:48.488Z,99647.31
2023-04-14T23:18:20.956Z,99643.81
2023-04-14T23:20:49.036Z,99645.75
2023-04-14T23:23:17.240Z,99645.27
2023-04-14T23:25:49.912Z,99646.34
2023-04-14T23:28:18.637Z,99642.61
2023-04-14T23:30:46.909Z,99640.99
2023-04-14T23:33:18.493Z,99640.74
2023-04-14T23:35:48.707Z,99635.08
2023-04-14T23:38:18.366Z,99632.89
2023-04-14T23:40:50.137Z,99627.78
2023-04-14T23:43:18.853Z,99632.10
2023-04-14T23:45:46.926Z,99632.92
2023-04-14T23:48:18.788Z,99631.79
2023-04-14T23:51:01.052Z,99631.74
2023-04-14T23:53:35.407Z,99634.61
2023-04-14T23:56:08.151Z,99633.04
2023-04-14T23:58:36.104Z,99637.03
